Terminal Aerodrome Forecast
Issued by NWS

Home | Current Version | Previous Version | Graphics & Text | Print | Product List | Glossary On
Versions: 1 2 3 4 5 6 7 8 9 10 11 12 13 14 15 16 17
000
FTUS41 KCLE 011100
TAFFDY
TAF
KFDY 011120Z 0112/0212 18006KT P6SM BKN025
      TEMPO 0112/0115 5SM BR BKN006
     FM011500 21010KT P6SM BKN025
     FM011700 22012KT P6SM SCT045
     FM012100 23014KT P6SM VCTS BKN045CB
     FM020200 22006KT 6SM HZ VCTS BKN045CB OVC120
     FM020900 23010KT 5SM -SHRA BR VCTS OVC025CB=

USA.gov is the U.S. government's official web portal to all federal, state and local government web resources and services.